Terminal Aerodrome Forecast
Issued by NWS Jacksonville, FL

Home | Current Version | Previous Version | Text Only | Print | Product List | Glossary On
Versions: 1 2 3 4 5 6 7 8 9 10 11 12 13 14 15 16 17 18 19
323
FTUS42 KJAX 040956 AAB
TAFGNV
TAF AMD
KGNV 040956Z 0410/0506 23007KT P6SM VCSH SCT015 BKN060 BKN200
      TEMPO 0410/0412 BKN015
     FM041200 26008KT P6SM VCTS SCT020 SCT035CB OVC100
      TEMPO 0412/0415 VRB15G25KT 3SM +TSRA BR BKN015 BKN030CB OVC070
     FM041600 28009KT P6SM SCT020 BKN040 OVC100
     FM041900 29010KT P6SM SCT040 SCT150=

USA.gov is the U.S. government's official web portal to all federal, state and local government web resources and services.